createdAt,value
2022-12-09T00:02:59.553Z,63.36
2022-12-09T00:08:18.353Z,63.04
2022-12-09T00:13:22.923Z,63.25
2022-12-09T00:18:28.006Z,63.19
2022-12-09T00:23:32.001Z,63.34
2022-12-09T00:34:11.607Z,63.35
2022-12-09T00:39:37.898Z,63.56
2022-12-09T00:44:42.259Z,63.60
2022-12-09T00:49:46.527Z,63.50
2022-12-09T01:00:12.500Z,63.84
2022-12-09T01:05:22.204Z,63.92
2022-12-09T01:10:26.601Z,63.95
2022-12-09T01:15:30.864Z,63.83
2022-12-09T01:20:38.315Z,63.79
2022-12-09T01:25:42.901Z,63.63
2022-12-09T01:31:03.749Z,63.19
2022-12-09T01:36:17.611Z,63.31
2022-12-09T01:41:22.722Z,63.50
2022-12-09T01:47:23.031Z,63.39
2022-12-09T01:57:50.548Z,63.86
2022-12-09T02:03:07.706Z,64.07
2022-12-09T02:08:19.676Z,64.23
2022-12-09T02:13:38.769Z,64.33
2022-12-09T02:18:58.860Z,64.93
2022-12-09T02:24:24.108Z,64.63
2022-12-09T02:29:50.016Z,64.67
2022-12-09T02:35:16.245Z,64.77
2022-12-09T02:40:51.054Z,64.67
2022-12-09T02:45:58.118Z,64.78
2022-12-09T02:51:09.738Z,64.73
2022-12-09T02:56:16.360Z,65.17
2022-12-09T03:01:35.661Z,65.05
2022-12-09T03:06:46.183Z,65.02
2022-12-09T03:11:55.719Z,64.68
2022-12-09T03:17:26.718Z,64.64
2022-12-09T03:22:36.418Z,64.42
2022-12-09T03:27:54.148Z,64.76
2022-12-09T03:33:03.886Z,64.72
2022-12-09T03:38:13.058Z,64.73
2022-12-09T03:43:27.036Z,65.14
2022-12-09T03:48:31.911Z,65.38
2022-12-09T03:53:57.133Z,65.39
2022-12-09T03:59:05.474Z,65.32
2022-12-09T04:04:16.115Z,65.19
2022-12-09T04:09:26.415Z,65.42
2022-12-09T04:14:30.556Z,65.28
2022-12-09T04:19:34.843Z,65.70
2022-12-09T04:24:39.037Z,65.29
2022-12-09T04:29:46.423Z,65.37
2022-12-09T04:34:50.736Z,65.68
2022-12-09T04:39:56.397Z,65.26
2022-12-09T04:45:03.152Z,65.03
2022-12-09T04:50:08.378Z,65.21
2022-12-09T04:55:28.557Z,64.76
2022-12-09T05:00:42.773Z,64.86
2022-12-09T05:05:47.184Z,65.35
2022-12-09T05:16:26.454Z,65.29
2022-12-09T05:21:30.781Z,64.95
2022-12-09T05:26:40.046Z,65.30
2022-12-09T05:31:44.214Z,65.34
2022-12-09T05:36:53.037Z,65.49
2022-12-09T05:42:09.357Z,65.34
2022-12-09T05:47:27.058Z,65.53
2022-12-09T05:52:31.776Z,65.64
2022-12-09T05:57:37.958Z,65.45
2022-12-09T06:02:42.592Z,65.75
2022-12-09T06:07:46.543Z,65.93
2022-12-09T06:12:53.840Z,65.57
2022-12-09T06:17:58.127Z,65.60
2022-12-09T06:23:08.633Z,65.33
2022-12-09T06:28:15.076Z,65.30
2022-12-09T06:33:52.611Z,65.63
2022-12-09T06:38:46.153Z,65.88
2022-12-09T06:44:04.197Z,65.72
2022-12-09T06:49:16.009Z,65.65
2022-12-09T06:54:23.101Z,66.04
2022-12-09T06:59:29.953Z,65.96
2022-12-09T07:04:34.344Z,66.21
2022-12-09T07:09:41.550Z,66.23
2022-12-09T07:14:46.864Z,66.30
2022-12-09T07:19:51.951Z,66.47
2022-12-09T07:24:56.750Z,66.66
2022-12-09T07:30:08.191Z,66.42
2022-12-09T07:35:15.452Z,66.88
2022-12-09T07:40:28.039Z,67.05
2022-12-09T07:45:35.003Z,67.01
2022-12-09T07:51:05.541Z,67.23
2022-12-09T07:56:32.212Z,67.39
2022-12-09T08:01:47.958Z,67.21
2022-12-09T08:08:01.104Z,67.29
2022-12-09T08:13:09.069Z,67.40
2022-12-09T08:18:31.784Z,67.51
2022-12-09T08:23:45.864Z,67.50
2022-12-09T08:28:51.644Z,67.34
2022-12-09T08:34:01.525Z,67.08
2022-12-09T08:39:07.787Z,67.13
2022-12-09T08:44:20.244Z,67.17
2022-12-09T08:49:34.838Z,66.91
2022-12-09T08:54:38.915Z,66.74
2022-12-09T08:59:45.465Z,66.36
2022-12-09T09:04:50.135Z,66.45
2022-12-09T09:09:58.255Z,66.25
2022-12-09T09:15:03.820Z,65.66
2022-12-09T09:20:12.362Z,65.48
2022-12-09T09:25:19.085Z,65.27
2022-12-09T09:30:25.395Z,64.94
2022-12-09T09:36:13.005Z,64.96
2022-12-09T09:41:27.042Z,64.69
2022-12-09T09:47:05.450Z,64.51
2022-12-09T09:52:26.137Z,64.42
2022-12-09T09:58:11.046Z,64.21
2022-12-09T10:04:22.065Z,63.53
2022-12-09T10:10:02.058Z,63.03
2022-12-09T10:15:31.540Z,62.49
2022-12-09T10:20:48.017Z,62.33
2022-12-09T10:25:57.811Z,61.12
2022-12-09T10:31:03.644Z,59.81
2022-12-09T10:36:38.108Z,58.98
2022-12-09T10:42:34.801Z,58.11
2022-12-09T10:47:49.838Z,57.85
2022-12-09T10:52:56.116Z,57.97
2022-12-09T10:58:17.900Z,58.06
2022-12-09T11:09:27.215Z,57.82
2022-12-09T11:14:53.267Z,57.58
2022-12-09T11:20:26.387Z,57.02
2022-12-09T11:25:50.408Z,56.99
2022-12-09T11:36:42.247Z,56.11
2022-12-09T11:42:16.131Z,56.14
2022-12-09T11:48:25.891Z,55.86
2022-12-09T11:53:34.435Z,54.50
2022-12-09T11:59:16.850Z,54.30
2022-12-09T12:05:08.303Z,55.10
2022-12-09T12:10:30.558Z,54.24
2022-12-09T12:16:07.831Z,53.40
2022-12-09T12:27:55.264Z,55.07
2022-12-09T12:39:29.854Z,56.54
2022-12-09T12:46:34.044Z,56.73
2022-12-09T12:52:04.187Z,57.07
2022-12-09T12:57:26.728Z,57.23
2022-12-09T13:02:47.827Z,57.38
2022-12-09T13:08:02.583Z,57.24
2022-12-09T13:13:19.532Z,57.11
2022-12-09T13:18:35.682Z,57.08
2022-12-09T13:24:08.823Z,56.70
2022-12-09T13:29:51.501Z,56.28
2022-12-09T13:35:05.719Z,56.11
2022-12-09T13:40:24.817Z,55.98
2022-12-09T13:45:37.669Z,56.15
2022-12-09T13:50:44.406Z,56.16
2022-12-09T13:56:07.203Z,56.67
2022-12-09T14:08:01.803Z,57.35
2022-12-09T14:13:26.959Z,57.75
2022-12-09T14:18:50.439Z,57.85
2022-12-09T14:24:11.598Z,58.22
2022-12-09T14:30:01.825Z,58.47
2022-12-09T14:35:12.977Z,58.79
2022-12-09T14:40:51.026Z,58.52
2022-12-09T14:46:01.146Z,58.11
2022-12-09T14:51:16.194Z,58.33
2022-12-09T15:01:50.200Z,59.38
2022-12-09T15:07:23.327Z,59.10
2022-12-09T15:12:48.014Z,59.42
2022-12-09T15:18:31.641Z,60.01
2022-12-09T15:23:45.847Z,60.67
2022-12-09T15:28:55.742Z,61.51
2022-12-09T15:34:26.286Z,61.98
2022-12-09T15:39:59.478Z,62.52
2022-12-09T15:45:12.097Z,63.10
2022-12-09T15:50:18.840Z,63.21
2022-12-09T15:55:42.733Z,63.54
2022-12-09T16:00:52.522Z,64.67
2022-12-09T16:11:41.730Z,64.79
2022-12-09T16:16:53.023Z,64.59
2022-12-09T16:22:01.332Z,64.05
2022-12-09T16:27:06.247Z,64.31
2022-12-09T16:32:34.734Z,64.71
2022-12-09T16:37:42.269Z,64.88
2022-12-09T16:42:48.621Z,65.90
2022-12-09T16:47:56.761Z,65.49
2022-12-09T16:53:00.904Z,65.36
2022-12-09T16:58:05.530Z,65.87
2022-12-09T17:03:16.036Z,66.29
2022-12-09T17:08:19.785Z,66.56
2022-12-09T17:13:23.575Z,66.25
2022-12-09T17:18:28.783Z,66.30
2022-12-09T17:23:39.395Z,66.91
2022-12-09T17:28:45.286Z,67.27
2022-12-09T17:33:49.853Z,66.86
2022-12-09T17:38:53.643Z,66.85
2022-12-09T17:43:58.060Z,66.96
2022-12-09T17:49:15.093Z,66.77
2022-12-09T17:54:32.276Z,66.85
2022-12-09T17:59:38.971Z,66.97
2022-12-09T18:04:43.283Z,67.47
2022-12-09T18:09:54.609Z,67.20
2022-12-09T18:14:58.589Z,67.83
2022-12-09T18:20:02.406Z,67.64
2022-12-09T18:25:08.098Z,67.66
2022-12-09T18:30:13.705Z,68.10
2022-12-09T18:35:17.655Z,68.24
2022-12-09T18:40:24.440Z,68.19
2022-12-09T18:45:28.159Z,67.91
2022-12-09T18:50:31.668Z,68.16
2022-12-09T18:55:41.854Z,67.96
2022-12-09T19:00:48.918Z,68.18
2022-12-09T19:05:52.850Z,68.07
2022-12-09T19:10:57.861Z,68.63
2022-12-09T19:16:10.338Z,68.05
2022-12-09T19:21:19.955Z,67.90
2022-12-09T19:26:26.431Z,68.31
2022-12-09T19:31:35.644Z,68.50
2022-12-09T19:36:40.068Z,68.57
2022-12-09T19:41:44.751Z,68.41
2022-12-09T19:46:50.595Z,68.53
2022-12-09T19:51:55.055Z,68.37
2022-12-09T19:56:58.822Z,68.40
2022-12-09T20:02:02.320Z,68.49
2022-12-09T20:07:08.338Z,68.20
2022-12-09T20:12:12.725Z,68.41
2022-12-09T20:17:20.024Z,68.42
2022-12-09T20:22:23.869Z,68.41
2022-12-09T20:27:30.526Z,68.61
2022-12-09T20:37:58.630Z,68.87
2022-12-09T20:43:05.081Z,68.83
2022-12-09T20:48:08.887Z,69.79
2022-12-09T20:53:12.590Z,69.31
2022-12-09T20:58:16.287Z,68.68
2022-12-09T21:03:20.279Z,68.72
2022-12-09T21:08:45.269Z,68.42
2022-12-09T21:13:52.284Z,68.64
2022-12-09T21:18:59.439Z,68.43
2022-12-09T21:24:06.313Z,69.03
2022-12-09T21:29:11.949Z,69.10
2022-12-09T21:34:15.595Z,68.75
2022-12-09T21:39:19.951Z,69.01
2022-12-09T21:51:25.068Z,69.23
2022-12-09T21:58:27.058Z,69.39
2022-12-09T22:03:14.667Z,69.20
2022-12-09T22:09:01.759Z,69.39
2022-12-09T22:14:29.453Z,69.54
2022-12-09T22:19:43.458Z,69.33
2022-12-09T22:24:50.185Z,69.51
2022-12-09T22:29:53.199Z,69.68
2022-12-09T22:34:57.151Z,69.98
2022-12-09T22:40:00.230Z,69.32
2022-12-09T22:45:05.387Z,69.29
2022-12-09T22:50:09.182Z,69.24
2022-12-09T22:55:12.585Z,69.19
2022-12-09T23:00:15.982Z,69.66
2022-12-09T23:05:19.196Z,69.41
2022-12-09T23:10:22.595Z,69.63
2022-12-09T23:15:25.865Z,69.26
2022-12-09T23:20:29.517Z,69.26
2022-12-09T23:37:28.665Z,69.81
